sensor_id;sensor_type;location;lat;lon;timestamp;pressure;altitude;pressure_sealevel;temperature;humidity
77869;BME280;67231;59.144;37.934;2023-03-01T00:02:23;99123.31;;;-6.50;71.73
77869;BME280;67231;59.144;37.934;2023-03-01T00:04:49;99121.69;;;-6.52;72.00
77869;BME280;67231;59.144;37.934;2023-03-01T00:07:15;99125.16;;;-6.53;72.06
77869;BME280;67231;59.144;37.934;2023-03-01T00:09:41;99129.56;;;-6.55;71.87
77869;BME280;67231;59.144;37.934;2023-03-01T00:12:07;99121.94;;;-6.59;71.96
77869;BME280;67231;59.144;37.934;2023-03-01T00:14:35;99116.91;;;-6.62;71.95
77869;BME280;67231;59.144;37.934;2023-03-01T00:17:01;99123.97;;;-6.65;71.76
77869;BME280;67231;59.144;37.934;2023-03-01T00:19:28;99125.84;;;-6.69;71.49
77869;BME280;67231;59.144;37.934;2023-03-01T00:21:54;99132.78;;;-6.71;71.71
77869;BME280;67231;59.144;37.934;2023-03-01T00:24:20;99119.19;;;-6.74;72.31
77869;BME280;67231;59.144;37.934;2023-03-01T00:26:47;99128.81;;;-6.78;72.09
77869;BME280;67231;59.144;37.934;2023-03-01T00:29:13;99127.25;;;-6.82;72.07
77869;BME280;67231;59.144;37.934;2023-03-01T00:31:39;99129.88;;;-6.84;72.17
77869;BME280;67231;59.144;37.934;2023-03-01T00:34:06;99134.34;;;-6.87;72.57
77869;BME280;67231;59.144;37.934;2023-03-01T00:36:36;99137.84;;;-6.88;72.48
77869;BME280;67231;59.144;37.934;2023-03-01T00:39:05;99143.13;;;-6.91;72.35
77869;BME280;67231;59.144;37.934;2023-03-01T00:41:32;99143.25;;;-6.94;72.55
77869;BME280;67231;59.144;37.934;2023-03-01T00:43:59;99141.69;;;-6.99;72.38
77869;BME280;67231;59.144;37.934;2023-03-01T00:46:26;99141.81;;;-7.02;72.03
77869;BME280;67231;59.144;37.934;2023-03-01T00:48:53;99147.97;;;-7.04;72.18
77869;BME280;67231;59.144;37.934;2023-03-01T00:51:26;99152.38;;;-7.08;72.30
77869;BME280;67231;59.144;37.934;2023-03-01T00:53:55;99149.03;;;-7.10;72.36
77869;BME280;67231;59.144;37.934;2023-03-01T00:56:23;99143.09;;;-7.12;72.19
77869;BME280;67231;59.144;37.934;2023-03-01T00:58:49;99143.16;;;-7.14;72.29
77869;BME280;67231;59.144;37.934;2023-03-01T01:01:19;99137.25;;;-7.16;72.29
77869;BME280;67231;59.144;37.934;2023-03-01T01:03:56;99142.53;;;-7.19;72.29
77869;BME280;67231;59.144;37.934;2023-03-01T01:06:29;99136.56;;;-7.21;72.13
77869;BME280;67231;59.144;37.934;2023-03-01T01:08:58;99139.22;;;-7.22;72.31
77869;BME280;67231;59.144;37.934;2023-03-01T01:11:26;99139.38;;;-7.25;72.50
77869;BME280;67231;59.144;37.934;2023-03-01T01:13:53;99137.69;;;-7.26;72.47
77869;BME280;67231;59.144;37.934;2023-03-01T01:16:21;99141.25;;;-7.30;72.45
77869;BME280;67231;59.144;37.934;2023-03-01T01:18:48;99135.34;;;-7.33;72.80
77869;BME280;67231;59.144;37.934;2023-03-01T01:21:17;99145.66;;;-7.33;72.59
77869;BME280;67231;59.144;37.934;2023-03-01T01:23:45;99143.97;;;-7.34;72.54
77869;BME280;67231;59.144;37.934;2023-03-01T01:26:17;99144.00;;;-7.35;72.56
77869;BME280;67231;59.144;37.934;2023-03-01T01:28:45;99145.75;;;-7.36;72.27
77869;BME280;67231;59.144;37.934;2023-03-01T01:31:11;99147.50;;;-7.36;72.55
77869;BME280;67231;59.144;37.934;2023-03-01T01:33:38;99142.34;;;-7.36;72.43
77869;BME280;67231;59.144;37.934;2023-03-01T01:36:05;99147.50;;;-7.36;72.24
77869;BME280;67231;59.144;37.934;2023-03-01T01:38:33;99141.50;;;-7.37;72.57
77869;BME280;67231;59.144;37.934;2023-03-01T01:41:00;99132.19;;;-7.39;72.69
77869;BME280;67231;59.144;37.934;2023-03-01T01:43:29;99139.06;;;-7.40;73.00
77869;BME280;67231;59.144;37.934;2023-03-01T01:45:56;99144.34;;;-7.43;71.85
77869;BME280;67231;59.144;37.934;2023-03-01T01:48:30;99143.81;;;-7.51;72.38
77869;BME280;67231;59.144;37.934;2023-03-01T01:51:11;99160.28;;;-7.55;72.56
77869;BME280;67231;59.144;37.934;2023-03-01T01:53:39;99157.00;;;-7.59;72.44
77869;BME280;67231;59.144;37.934;2023-03-01T01:56:08;99156.25;;;-7.62;72.83
77869;BME280;67231;59.144;37.934;2023-03-01T01:58:37;99155.47;;;-7.64;72.29
77869;BME280;67231;59.144;37.934;2023-03-01T02:01:05;99156.50;;;-7.69;72.75
77869;BME280;67231;59.144;37.934;2023-03-01T02:03:33;99153.25;;;-7.74;73.20
77869;BME280;67231;59.144;37.934;2023-03-01T02:06:07;99165.34;;;-7.76;72.58
77869;BME280;67231;59.144;37.934;2023-03-01T02:08:40;99156.06;;;-7.80;72.43
77869;BME280;67231;59.144;37.934;2023-03-01T02:11:08;99158.78;;;-7.83;72.41
77869;BME280;67231;59.144;37.934;2023-03-01T02:13:36;99155.50;;;-7.88;72.55
77869;BME280;67231;59.144;37.934;2023-03-01T02:16:13;99158.22;;;-7.91;72.93
77869;BME280;67231;59.144;37.934;2023-03-01T02:18:41;99162.72;;;-7.98;73.09
77869;BME280;67231;59.144;37.934;2023-03-01T02:23:46;99156.09;;;-8.03;73.18
77869;BME280;67231;59.144;37.934;2023-03-01T02:28:45;99163.97;;;-8.08;72.50
77869;BME280;67231;59.144;37.934;2023-03-01T02:31:15;99159.72;;;-8.09;72.71
77869;BME280;67231;59.144;37.934;2023-03-01T02:34:00;99159.81;;;-8.12;73.42
77869;BME280;67231;59.144;37.934;2023-03-01T02:36:31;99158.16;;;-8.13;72.74
77869;BME280;67231;59.144;37.934;2023-03-01T02:39:02;99163.38;;;-8.15;73.26
77869;BME280;67231;59.144;37.934;2023-03-01T02:41:32;99157.38;;;-8.15;72.87
77869;BME280;67231;59.144;37.934;2023-03-01T02:44:02;99161.69;;;-8.16;72.66
77869;BME280;67231;59.144;37.934;2023-03-01T02:46:28;99165.09;;;-8.15;73.29
77869;BME280;67231;59.144;37.934;2023-03-01T02:48:57;99162.47;;;-8.14;73.33
77869;BME280;67231;59.144;37.934;2023-03-01T02:56:49;99166.81;;;-8.16;73.17
77869;BME280;67231;59.144;37.934;2023-03-01T02:59:20;99164.31;;;-8.17;72.99
77869;BME280;67231;59.144;37.934;2023-03-01T03:01:47;99156.53;;;-8.16;72.65
77869;BME280;67231;59.144;37.934;2023-03-01T03:04:15;99162.50;;;-8.15;72.86
77869;BME280;67231;59.144;37.934;2023-03-01T03:06:49;99158.28;;;-8.16;72.68
77869;BME280;67231;59.144;37.934;2023-03-01T03:09:17;99180.63;;;-8.17;73.20
77869;BME280;67231;59.144;37.934;2023-03-01T03:11:45;99167.84;;;-8.20;73.11
77869;BME280;67231;59.144;37.934;2023-03-01T03:14:13;99166.22;;;-8.23;73.05
77869;BME280;67231;59.144;37.934;2023-03-01T03:16:47;99165.38;;;-8.23;72.89
77869;BME280;67231;59.144;37.934;2023-03-01T03:19:15;99163.59;;;-8.21;73.54
77869;BME280;67231;59.144;37.934;2023-03-01T03:21:42;99163.59;;;-8.21;73.30
77869;BME280;67231;59.144;37.934;2023-03-01T03:24:09;99172.09;;;-8.19;73.27
77869;BME280;67231;59.144;37.934;2023-03-01T03:26:36;99161.72;;;-8.17;73.10
77869;BME280;67231;59.144;37.934;2023-03-01T03:29:02;99163.47;;;-8.18;73.41
77869;BME280;67231;59.144;37.934;2023-03-01T03:31:28;99148.09;;;-8.19;73.69
77869;BME280;67231;59.144;37.934;2023-03-01T03:33:55;99165.28;;;-8.20;72.82
77869;BME280;67231;59.144;37.934;2023-03-01T03:36:23;99157.50;;;-8.18;73.22
77869;BME280;67231;59.144;37.934;2023-03-01T03:38:50;99160.97;;;-8.19;72.76
77869;BME280;67231;59.144;37.934;2023-03-01T03:41:17;99164.47;;;-8.22;73.57
77869;BME280;67231;59.144;37.934;2023-03-01T03:43:43;99154.22;;;-8.24;73.26
77869;BME280;67231;59.144;37.934;2023-03-01T03:46:11;99160.28;;;-8.25;73.04
77869;BME280;67231;59.144;37.934;2023-03-01T03:48:43;99156.13;;;-8.29;73.34
77869;BME280;67231;59.144;37.934;2023-03-01T03:51:12;99155.31;;;-8.29;73.07
77869;BME280;67231;59.144;37.934;2023-03-01T03:53:38;99161.28;;;-8.29;73.77
77869;BME280;67231;59.144;37.934;2023-03-01T03:56:05;99165.59;;;-8.29;73.16
77869;BME280;67231;59.144;37.934;2023-03-01T03:58:31;99176.00;;;-8.32;73.56
77869;BME280;67231;59.144;37.934;2023-03-01T04:00:57;99182.09;;;-8.35;73.80
77869;BME280;67231;59.144;37.934;2023-03-01T04:03:25;99189.84;;;-8.36;73.71
77869;BME280;67231;59.144;37.934;2023-03-01T04:05:52;99187.22;;;-8.35;73.66
77869;BME280;67231;59.144;37.934;2023-03-01T04:08:19;99189.75;;;-8.33;73.62
77869;BME280;67231;59.144;37.934;2023-03-01T04:10:49;99189.66;;;-8.30;73.82
77869;BME280;67231;59.144;37.934;2023-03-01T04:13:21;99187.97;;;-8.31;73.89
77869;BME280;67231;59.144;37.934;2023-03-01T04:15:51;99188.91;;;-8.34;73.61
77869;BME280;67231;59.144;37.934;2023-03-01T04:18:23;99193.22;;;-8.34;73.95
77869;BME280;67231;59.144;37.934;2023-03-01T04:20:50;99196.69;;;-8.35;73.63
77869;BME280;67231;59.144;37.934;2023-03-01T04:23:19;99201.00;;;-8.36;73.75
77869;BME280;67231;59.144;37.934;2023-03-01T04:25:49;99200.16;;;-8.36;73.31
77869;BME280;67231;59.144;37.934;2023-03-01T04:28:45;99200.16;;;-8.36;73.55
77869;BME280;67231;59.144;37.934;2023-03-01T04:31:16;99202.72;;;-8.36;73.75
77869;BME280;67231;59.144;37.934;2023-03-01T04:33:49;99207.81;;;-8.35;73.36
77869;BME280;67231;59.144;37.934;2023-03-01T04:36:18;99208.56;;;-8.31;73.55
77869;BME280;67231;59.144;37.934;2023-03-01T04:38:45;99215.25;;;-8.27;73.85
77869;BME280;67231;59.144;37.934;2023-03-01T04:41:17;99231.53;;;-8.27;73.85
77869;BME280;67231;59.144;37.934;2023-03-01T04:43:44;99221.19;;;-8.25;73.66
77869;BME280;67231;59.144;37.934;2023-03-01T04:46:16;99228.81;;;-8.22;73.28
77869;BME280;67231;59.144;37.934;2023-03-01T04:48:43;99233.84;;;-8.19;73.14
77869;BME280;67231;59.144;37.934;2023-03-01T04:51:10;99235.38;;;-8.13;73.53
77869;BME280;67231;59.144;37.934;2023-03-01T04:53:39;99223.13;;;-8.07;73.25
77869;BME280;67231;59.144;37.934;2023-03-01T04:56:06;99229.72;;;-7.99;72.64
77869;BME280;67231;59.144;37.934;2023-03-01T04:58:33;99239.81;;;-7.93;72.88
77869;BME280;67231;59.144;37.934;2023-03-01T05:00:59;99245.63;;;-7.88;72.68
77869;BME280;67231;59.144;37.934;2023-03-01T05:03:25;99244.50;;;-7.81;72.52
77869;BME280;67231;59.144;37.934;2023-03-01T05:05:52;99238.53;;;-7.81;72.45
77869;BME280;67231;59.144;37.934;2023-03-01T05:08:18;99238.53;;;-7.81;72.66
77869;BME280;67231;59.144;37.934;2023-03-01T05:10:51;99244.13;;;-7.70;72.00
77869;BME280;67231;59.144;37.934;2023-03-01T05:13:19;99241.19;;;-7.15;71.66
77869;BME280;67231;59.144;37.934;2023-03-01T05:15:55;99243.53;;;-6.87;70.32
77869;BME280;67231;59.144;37.934;2023-03-01T05:18:22;99240.44;;;-6.97;70.29
77869;BME280;67231;59.144;37.934;2023-03-01T05:20:53;99246.81;;;-7.05;70.54
77869;BME280;67231;59.144;37.934;2023-03-01T05:23:22;99236.69;;;-7.10;70.93
77869;BME280;67231;59.144;37.934;2023-03-01T05:25:49;99238.50;;;-7.12;71.71
77869;BME280;67231;59.144;37.934;2023-03-01T05:28:19;99247.97;;;-7.12;70.83
77869;BME280;67231;59.144;37.934;2023-03-01T05:30:46;99240.94;;;-7.09;71.15
77869;BME280;67231;59.144;37.934;2023-03-01T05:33:12;99241.59;;;-7.04;70.98
77869;BME280;67231;59.144;37.934;2023-03-01T05:35:42;99242.06;;;-6.94;70.72
77869;BME280;67231;59.144;37.934;2023-03-01T05:38:10;99232.28;;;-6.86;70.58
77869;BME280;67231;59.144;37.934;2023-03-01T05:40:40;99237.78;;;-6.73;70.95
77869;BME280;67231;59.144;37.934;2023-03-01T05:43:07;99240.63;;;-6.17;70.62
77869;BME280;67231;59.144;37.934;2023-03-01T05:45:36;99236.81;;;-3.91;65.89
77869;BME280;67231;59.144;37.934;2023-03-01T05:48:03;99244.63;;;-1.61;61.49
77869;BME280;67231;59.144;37.934;2023-03-01T05:50:36;99247.03;;;0.16;58.86
77869;BME280;67231;59.144;37.934;2023-03-01T05:53:05;99248.44;;;1.20;56.50
77869;BME280;67231;59.144;37.934;2023-03-01T05:55:34;99263.69;;;1.97;54.65
77869;BME280;67231;59.144;37.934;2023-03-01T05:58:03;99264.31;;;0.56;55.41
77869;BME280;67231;59.144;37.934;2023-03-01T06:00:30;99274.66;;;-1.14;57.75
77869;BME280;67231;59.144;37.934;2023-03-01T06:02:57;99272.31;;;-1.75;58.92
77869;BME280;67231;59.144;37.934;2023-03-01T06:05:24;99274.94;;;-2.20;59.62
77869;BME280;67231;59.144;37.934;2023-03-01T06:07:51;99285.19;;;-2.47;59.91
77869;BME280;67231;59.144;37.934;2023-03-01T06:10:20;99278.88;;;-1.26;58.62
77869;BME280;67231;59.144;37.934;2023-03-01T06:12:47;99286.88;;;0.06;55.75
77869;BME280;67231;59.144;37.934;2023-03-01T06:15:15;99267.56;;;-0.70;55.63
77869;BME280;67231;59.144;37.934;2023-03-01T06:17:43;99281.09;;;-1.92;56.86
77869;BME280;67231;59.144;37.934;2023-03-01T06:22:38;99284.84;;;0.73;53.40
77869;BME280;67231;59.144;37.934;2023-03-01T06:25:05;99267.41;;;2.51;50.19
77869;BME280;67231;59.144;37.934;2023-03-01T06:27:32;99276.81;;;3.85;48.46
77869;BME280;67231;59.144;37.934;2023-03-01T06:29:58;99264.34;;;4.60;47.42
77869;BME280;67231;59.144;37.934;2023-03-01T06:32:25;99273.13;;;5.50;46.41
77869;BME280;67231;59.144;37.934;2023-03-01T06:34:51;99263.44;;;6.37;45.32
77869;BME280;67231;59.144;37.934;2023-03-01T06:37:17;99267.75;;;7.03;44.15
77869;BME280;67231;59.144;37.934;2023-03-01T06:39:44;99272.47;;;7.45;42.76
77869;BME280;67231;59.144;37.934;2023-03-01T06:42:10;99281.81;;;7.58;41.94
77869;BME280;67231;59.144;37.934;2023-03-01T06:44:37;99279.19;;;8.02;41.24
77869;BME280;67231;59.144;37.934;2023-03-01T06:47:03;99288.03;;;8.11;40.19
77869;BME280;67231;59.144;37.934;2023-03-01T06:49:30;99291.28;;;8.57;39.51
77869;BME280;67231;59.144;37.934;2023-03-01T06:51:56;99295.81;;;9.07;38.22
77869;BME280;67231;59.144;37.934;2023-03-01T06:54:23;99309.41;;;9.21;37.64
77869;BME280;67231;59.144;37.934;2023-03-01T06:56:50;99309.81;;;8.91;36.72
77869;BME280;67231;59.144;37.934;2023-03-01T06:59:17;99306.91;;;9.11;35.69
77869;BME280;67231;59.144;37.934;2023-03-01T07:01:43;99310.44;;;9.20;36.04
77869;BME280;67231;59.144;37.934;2023-03-01T07:04:10;99318.72;;;9.25;35.82
77869;BME280;67231;59.144;37.934;2023-03-01T07:06:37;99303.91;;;9.65;35.48
77869;BME280;67231;59.144;37.934;2023-03-01T07:09:05;99317.13;;;9.73;34.63
77869;BME280;67231;59.144;37.934;2023-03-01T07:11:32;99322.94;;;9.93;34.52
77869;BME280;67231;59.144;37.934;2023-03-01T07:13:58;99321.56;;;10.63;33.84
77869;BME280;67231;59.144;37.934;2023-03-01T07:16:25;99317.81;;;10.97;33.28
77869;BME280;67231;59.144;37.934;2023-03-01T07:18:51;99314.97;;;11.38;32.26
77869;BME280;67231;59.144;37.934;2023-03-01T07:21:18;99317.50;;;11.32;32.74
77869;BME280;67231;59.144;37.934;2023-03-01T07:23:47;99318.31;;;11.32;32.53
77869;BME280;67231;59.144;37.934;2023-03-01T07:26:14;99314.06;;;11.46;31.49
77869;BME280;67231;59.144;37.934;2023-03-01T07:28:40;99324.41;;;11.41;31.46
77869;BME280;67231;59.144;37.934;2023-03-01T07:31:06;99321.25;;;11.06;31.60
77869;BME280;67231;59.144;37.934;2023-03-01T07:33:32;99325.09;;;11.03;31.13
77869;BME280;67231;59.144;37.934;2023-03-01T07:36:00;99313.47;;;9.58;32.97
77869;BME280;67231;59.144;37.934;2023-03-01T07:38:27;99311.69;;;7.76;34.12
77869;BME280;67231;59.144;37.934;2023-03-01T07:40:58;99313.31;;;6.68;36.06
77869;BME280;67231;59.144;37.934;2023-03-01T07:43:25;99309.00;;;6.67;35.76
77869;BME280;67231;59.144;37.934;2023-03-01T07:45:51;99303.72;;;6.95;35.63
77869;BME280;67231;59.144;37.934;2023-03-01T07:48:17;99298.56;;;6.75;36.29
77869;BME280;67231;59.144;37.934;2023-03-01T07:50:43;99300.50;;;7.01;35.41
77869;BME280;67231;59.144;37.934;2023-03-01T07:53:10;99298.31;;;7.60;34.83
77869;BME280;67231;59.144;37.934;2023-03-01T07:55:36;99299.72;;;8.34;33.93
77869;BME280;67231;59.144;37.934;2023-03-01T07:58:02;99297.69;;;8.02;34.15
77869;BME280;67231;59.144;37.934;2023-03-01T08:00:29;99303.97;;;7.29;34.83
77869;BME280;67231;59.144;37.934;2023-03-01T08:02:58;99295.72;;;6.59;35.71
77869;BME280;67231;59.144;37.934;2023-03-01T08:05:25;99308.22;;;7.12;35.09
77869;BME280;67231;59.144;37.934;2023-03-01T08:07:51;99301.19;;;7.31;33.81
77869;BME280;67231;59.144;37.934;2023-03-01T08:10:17;99301.84;;;8.31;33.44
77869;BME280;67231;59.144;37.934;2023-03-01T08:12:43;99302.41;;;8.43;32.71
77869;BME280;67231;59.144;37.934;2023-03-01T08:15:10;99321.34;;;8.48;33.18
77869;BME280;67231;59.144;37.934;2023-03-01T08:17:37;99291.53;;;8.72;32.04
77869;BME280;67231;59.144;37.934;2023-03-01T08:20:03;99295.16;;;8.71;32.16
77869;BME280;67231;59.144;37.934;2023-03-01T08:22:33;99290.63;;;8.29;32.68
77869;BME280;67231;59.144;37.934;2023-03-01T08:24:59;99282.91;;;7.91;32.57
77869;BME280;67231;59.144;37.934;2023-03-01T08:27:25;99287.38;;;6.63;33.84
77869;BME280;67231;59.144;37.934;2023-03-01T08:29:51;99294.59;;;4.85;35.89
77869;BME280;67231;59.144;37.934;2023-03-01T08:32:18;99289.44;;;3.91;36.72
77869;BME280;67231;59.144;37.934;2023-03-01T08:34:46;99296.78;;;3.44;37.95
77869;BME280;67231;59.144;37.934;2023-03-01T08:37:13;99287.69;;;3.16;38.50
77869;BME280;67231;59.144;37.934;2023-03-01T08:39:39;99288.34;;;2.74;39.23
77869;BME280;67231;59.144;37.934;2023-03-01T08:42:05;99290.84;;;2.76;39.29
77869;BME280;67231;59.144;37.934;2023-03-01T08:44:32;99288.06;;;3.11;39.29
77869;BME280;67231;59.144;37.934;2023-03-01T08:46:58;99294.13;;;3.55;38.95
77869;BME280;67231;59.144;37.934;2023-03-01T08:49:25;99294.78;;;2.92;39.68
77869;BME280;67231;59.144;37.934;2023-03-01T08:51:52;99294.94;;;1.99;41.36
77869;BME280;67231;59.144;37.934;2023-03-01T08:54:20;99296.94;;;1.49;42.05
77869;BME280;67231;59.144;37.934;2023-03-01T08:56:48;99321.06;;;0.91;43.05
77869;BME280;67231;59.144;37.934;2023-03-01T08:59:15;99311.09;;;0.59;43.39
77869;BME280;67231;59.144;37.934;2023-03-01T09:01:42;99304.63;;;0.26;44.63
77869;BME280;67231;59.144;37.934;2023-03-01T09:04:10;99303.28;;;0.33;44.67
77869;BME280;67231;59.144;37.934;2023-03-01T09:06:37;99308.69;;;0.30;44.89
77869;BME280;67231;59.144;37.934;2023-03-01T09:09:04;99305.16;;;0.31;44.58
77869;BME280;67231;59.144;37.934;2023-03-01T09:11:31;99295.84;;;0.40;44.79
77869;BME280;67231;59.144;37.934;2023-03-01T09:13:57;99289.59;;;0.43;45.43
77869;BME280;67231;59.144;37.934;2023-03-01T09:16:24;99279.78;;;0.33;45.62
77869;BME280;67231;59.144;37.934;2023-03-01T09:18:52;99276.03;;;0.25;45.54
77869;BME280;67231;59.144;37.934;2023-03-01T09:21:20;99268.00;;;0.28;45.91
77869;BME280;67231;59.144;37.934;2023-03-01T09:23:47;99256.63;;;0.03;46.14
77869;BME280;67231;59.144;37.934;2023-03-01T09:26:21;99252.03;;;-0.19;46.38
77869;BME280;67231;59.144;37.934;2023-03-01T09:28:50;99253.88;;;-0.34;46.19
77869;BME280;67231;59.144;37.934;2023-03-01T09:31:18;99251.31;;;-0.61;46.67
77869;BME280;67231;59.144;37.934;2023-03-01T09:33:49;99239.13;;;-1.01;47.73
77869;BME280;67231;59.144;37.934;2023-03-01T09:36:18;99239.81;;;-1.26;48.36
77869;BME280;67231;59.144;37.934;2023-03-01T09:38:47;99245.97;;;-1.41;48.27
77869;BME280;67231;59.144;37.934;2023-03-01T09:44:05;99262.00;;;-1.76;48.98
77869;BME280;67231;59.144;37.934;2023-03-01T09:46:41;99244.72;;;-1.77;49.44
77869;BME280;67231;59.144;37.934;2023-03-01T09:49:19;99247.66;;;-1.55;49.65
77869;BME280;67231;59.144;37.934;2023-03-01T09:54:23;99246.50;;;-1.63;49.42
77869;BME280;67231;59.144;37.934;2023-03-01T09:57:10;99234.78;;;-1.85;50.07
77869;BME280;67231;59.144;37.934;2023-03-01T10:02:30;99249.25;;;-2.10;50.63
77869;BME280;67231;59.144;37.934;2023-03-01T10:10:38;99235.31;;;-2.09;50.96
77869;BME280;67231;59.144;37.934;2023-03-01T10:13:31;99244.34;;;-1.57;50.35
77869;BME280;67231;59.144;37.934;2023-03-01T10:16:13;99242.59;;;-1.15;49.94
77869;BME280;67231;59.144;37.934;2023-03-01T10:18:41;99248.16;;;-1.21;49.70
77869;BME280;67231;59.144;37.934;2023-03-01T10:21:17;99237.41;;;-1.29;49.78
77869;BME280;67231;59.144;37.934;2023-03-01T10:23:43;99248.97;;;-1.33;49.90
77869;BME280;67231;59.144;37.934;2023-03-01T10:31:27;99242.03;;;-1.76;51.13
77869;BME280;67231;59.144;37.934;2023-03-01T10:34:10;99222.41;;;-1.11;50.27
77869;BME280;67231;59.144;37.934;2023-03-01T10:36:38;99242.34;;;-0.97;49.93
77869;BME280;67231;59.144;37.934;2023-03-01T10:39:13;99230.41;;;-0.87;50.16
77869;BME280;67231;59.144;37.934;2023-03-01T10:41:53;99226.22;;;-0.62;49.47
77869;BME280;67231;59.144;37.934;2023-03-01T10:44:47;99251.94;;;-0.70;49.89
77869;BME280;67231;59.144;37.934;2023-03-01T10:47:23;99242.78;;;-0.90;50.49
77869;BME280;67231;59.144;37.934;2023-03-01T10:49:57;99222.53;;;-1.00;50.38
77869;BME280;67231;59.144;37.934;2023-03-01T10:52:36;99244.81;;;-1.08;50.45
77869;BME280;67231;59.144;37.934;2023-03-01T10:57:47;99240.31;;;-1.06;50.38
77869;BME280;67231;59.144;37.934;2023-03-01T11:00:22;99210.00;;;-0.93;51.07
77869;BME280;67231;59.144;37.934;2023-03-01T11:02:50;99215.72;;;-0.88;50.21
77869;BME280;67231;59.144;37.934;2023-03-01T11:05:21;99236.41;;;-0.99;50.60
77869;BME280;67231;59.144;37.934;2023-03-01T11:07:54;99227.97;;;-1.17;51.23
77869;BME280;67231;59.144;37.934;2023-03-01T11:10:26;99228.97;;;-1.33;51.42
77869;BME280;67231;59.144;37.934;2023-03-01T11:12:53;99221.72;;;-1.42;51.40
77869;BME280;67231;59.144;37.934;2023-03-01T11:15:31;99220.38;;;-1.48;51.56
77869;BME280;67231;59.144;37.934;2023-03-01T11:17:57;99200.38;;;-1.47;51.65
77869;BME280;67231;59.144;37.934;2023-03-01T11:23:10;99205.84;;;-1.37;52.26
77869;BME280;67231;59.144;37.934;2023-03-01T11:26:05;99205.94;;;-1.39;52.18
77869;BME280;67231;59.144;37.934;2023-03-01T11:28:36;99203.03;;;-1.34;52.09
77869;BME280;67231;59.144;37.934;2023-03-01T11:31:07;99197.94;;;-1.36;52.17
77869;BME280;67231;59.144;37.934;2023-03-01T11:33:46;99199.53;;;-1.33;52.43
77869;BME280;67231;59.144;37.934;2023-03-01T11:39:37;99196.81;;;-1.32;52.45
77869;BME280;67231;59.144;37.934;2023-03-01T11:42:05;99211.78;;;-1.35;52.30
77869;BME280;67231;59.144;37.934;2023-03-01T11:44:34;99194.34;;;-1.48;52.85
77869;BME280;67231;59.144;37.934;2023-03-01T12:01:32;99179.50;;;-1.60;53.77
77869;BME280;67231;59.144;37.934;2023-03-01T12:07:00;99173.38;;;-1.59;54.61
77869;BME280;67231;59.144;37.934;2023-03-01T12:15:01;99171.31;;;-1.54;55.46
77869;BME280;67231;59.144;37.934;2023-03-01T12:20:34;99175.38;;;-1.50;55.12
77869;BME280;67231;59.144;37.934;2023-03-01T12:29:18;99171.53;;;-1.71;56.69
77869;BME280;67231;59.144;37.934;2023-03-01T12:37:33;99166.97;;;-1.68;56.49
77869;BME280;67231;59.144;37.934;2023-03-01T12:40:33;99173.84;;;-1.67;57.12
77869;BME280;67231;59.144;37.934;2023-03-01T12:45:40;99174.84;;;-1.55;56.27
77869;BME280;67231;59.144;37.934;2023-03-01T12:51:03;99149.97;;;-1.59;56.40
77869;BME280;67231;59.144;37.934;2023-03-01T12:53:35;99156.47;;;-1.66;56.57
77869;BME280;67231;59.144;37.934;2023-03-01T12:56:06;99151.06;;;-1.63;56.73
77869;BME280;67231;59.144;37.934;2023-03-01T12:58:39;99147.56;;;-1.62;56.55
77869;BME280;67231;59.144;37.934;2023-03-01T13:04:23;99157.63;;;-1.57;57.56
77869;BME280;67231;59.144;37.934;2023-03-01T13:10:05;99161.44;;;-1.49;57.27
77869;BME280;67231;59.144;37.934;2023-03-01T13:15:26;99153.09;;;-1.54;57.46
77869;BME280;67231;59.144;37.934;2023-03-01T13:21:03;99149.09;;;-1.59;57.56
77869;BME280;67231;59.144;37.934;2023-03-01T13:23:34;99146.59;;;-1.61;57.86
77869;BME280;67231;59.144;37.934;2023-03-01T13:26:12;99140.97;;;-1.68;57.54
77869;BME280;67231;59.144;37.934;2023-03-01T13:36:11;99152.22;;;-1.96;58.30
77869;BME280;67231;59.144;37.934;2023-03-01T13:44:30;99170.25;;;-2.07;58.44
77869;BME280;67231;59.144;37.934;2023-03-01T13:49:41;99135.00;;;-2.11;59.17
77869;BME280;67231;59.144;37.934;2023-03-01T13:52:29;99146.47;;;-2.15;60.38
77869;BME280;67231;59.144;37.934;2023-03-01T13:54:56;99124.03;;;-2.16;61.02
77869;BME280;67231;59.144;37.934;2023-03-01T13:57:28;99127.47;;;-2.16;60.64
77869;BME280;67231;59.144;37.934;2023-03-01T13:59:57;99127.38;;;-2.14;60.63
77869;BME280;67231;59.144;37.934;2023-03-01T14:02:23;99129.06;;;-2.13;60.71
77869;BME280;67231;59.144;37.934;2023-03-01T14:05:00;99108.44;;;-2.16;60.39
77869;BME280;67231;59.144;37.934;2023-03-01T14:07:27;99119.94;;;-2.21;60.16
77869;BME280;67231;59.144;37.934;2023-03-01T14:10:03;99134.63;;;-2.20;60.16
77869;BME280;67231;59.144;37.934;2023-03-01T14:12:55;99126.06;;;-2.22;60.35
77869;BME280;67231;59.144;37.934;2023-03-01T14:15:33;99122.53;;;-2.21;61.06
77869;BME280;67231;59.144;37.934;2023-03-01T14:20:49;99118.47;;;-2.25;60.95
77869;BME280;67231;59.144;37.934;2023-03-01T14:23:21;99131.66;;;-2.28;60.81
77869;BME280;67231;59.144;37.934;2023-03-01T14:25:53;99127.47;;;-2.30;60.88
77869;BME280;67231;59.144;37.934;2023-03-01T14:28:32;99131.06;;;-2.33;60.67
77869;BME280;67231;59.144;37.934;2023-03-01T14:31:05;99141.66;;;-2.36;60.75
77869;BME280;67231;59.144;37.934;2023-03-01T14:33:57;99153.00;;;-2.37;60.23
77869;BME280;67231;59.144;37.934;2023-03-01T14:36:28;99135.72;;;-2.38;60.25
77869;BME280;67231;59.144;37.934;2023-03-01T14:38:54;99127.94;;;-2.38;60.11
77869;BME280;67231;59.144;37.934;2023-03-01T14:41:23;99122.81;;;-2.40;60.28
77869;BME280;67231;59.144;37.934;2023-03-01T14:43:57;99133.13;;;-2.38;60.39
77869;BME280;67231;59.144;37.934;2023-03-01T14:46:35;99127.19;;;-2.40;60.45
77869;BME280;67231;59.144;37.934;2023-03-01T14:49:05;99121.16;;;-2.41;60.61
77869;BME280;67231;59.144;37.934;2023-03-01T14:51:41;99134.06;;;-2.39;60.87
77869;BME280;67231;59.144;37.934;2023-03-01T14:54:21;99141.94;;;-2.41;61.06
77869;BME280;67231;59.144;37.934;2023-03-01T14:56:51;99131.56;;;-2.41;60.97
77869;BME280;67231;59.144;37.934;2023-03-01T14:59:21;99135.91;;;-2.41;60.78
77869;BME280;67231;59.144;37.934;2023-03-01T15:01:50;99129.06;;;-2.42;60.50